createdAt,value
2018-05-09T00:00:59.728Z,19.70
2018-05-09T00:04:00.975Z,19.60
2018-05-09T00:07:02.256Z,19.80
2018-05-09T00:10:03.526Z,19.90
2018-05-09T00:13:05.533Z,20.00
2018-05-09T00:16:06.751Z,19.90
2018-05-09T00:19:08.020Z,19.60
2018-05-09T00:22:09.277Z,19.80
2018-05-09T00:25:10.653Z,19.90
2018-05-09T00:28:11.878Z,19.80
2018-05-09T00:31:13.145Z,19.80
2018-05-09T00:34:14.413Z,19.70
2018-05-09T00:37:15.641Z,19.90
2018-05-09T00:40:16.912Z,19.90
2018-05-09T00:43:18.197Z,19.50
2018-05-09T00:46:19.460Z,19.70
2018-05-09T00:49:20.709Z,19.80
2018-05-09T00:52:21.935Z,19.60
2018-05-09T00:55:23.945Z,19.70
2018-05-09T00:58:25.175Z,19.70
2018-05-09T01:01:27.146Z,19.80
2018-05-09T01:04:28.425Z,19.80
2018-05-09T01:07:30.406Z,19.70
2018-05-09T01:10:32.396Z,19.80
2018-05-09T01:13:33.633Z,19.80
2018-05-09T01:16:35.677Z,19.90
2018-05-09T01:19:36.934Z,19.80
2018-05-09T01:22:38.159Z,19.80
2018-05-09T01:25:40.128Z,19.70
2018-05-09T01:28:42.986Z,19.90
2018-05-09T01:31:44.817Z,19.80
2018-05-09T01:34:46.816Z,20.00
2018-05-09T01:37:48.149Z,19.90
2018-05-09T01:40:49.337Z,20.00
2018-05-09T01:43:50.665Z,19.80
2018-05-09T01:46:51.909Z,19.70
2018-05-09T01:49:53.186Z,20.00
2018-05-09T01:52:54.504Z,20.00
2018-05-09T01:55:55.781Z,20.00
2018-05-09T01:59:00.895Z,20.00
2018-05-09T02:02:02.907Z,20.00
2018-05-09T02:05:04.151Z,20.00
2018-05-09T02:08:05.403Z,19.90
2018-05-09T02:11:11.464Z,19.90
2018-05-09T02:14:13.490Z,20.00
2018-05-09T02:17:15.214Z,20.00
2018-05-09T02:20:17.237Z,19.90
2018-05-09T02:23:18.463Z,20.00
2018-05-09T02:26:20.430Z,19.80
2018-05-09T02:29:21.662Z,19.80
2018-05-09T02:32:22.917Z,19.70
2018-05-09T02:35:24.200Z,19.80
2018-05-09T02:38:26.467Z,19.80
2018-05-09T02:41:28.484Z,19.80
2018-05-09T02:44:30.521Z,19.80
2018-05-09T02:47:31.754Z,19.80
2018-05-09T02:50:33.740Z,19.80
2018-05-09T02:53:35.754Z,19.80
2018-05-09T02:56:37.024Z,19.80
2018-05-09T02:59:38.343Z,19.80
2018-05-09T03:02:40.315Z,19.80
2018-05-09T03:05:41.729Z,19.80
2018-05-09T03:08:43.009Z,19.70
2018-05-09T03:11:44.284Z,19.60
2018-05-09T03:14:45.658Z,19.70
2018-05-09T03:17:46.897Z,19.60
2018-05-09T03:20:48.145Z,19.60
2018-05-09T03:23:49.404Z,19.60
2018-05-09T03:26:50.796Z,19.50
2018-05-09T03:29:52.180Z,19.60
2018-05-09T03:32:53.440Z,19.50
2018-05-09T03:35:54.758Z,19.50
2018-05-09T03:38:56.034Z,19.50
2018-05-09T03:41:57.255Z,19.60
2018-05-09T03:44:59.259Z,19.70
2018-05-09T03:48:07.489Z,19.70
2018-05-09T03:51:08.742Z,19.60
2018-05-09T03:54:10.864Z,19.50
2018-05-09T03:57:12.131Z,19.50
2018-05-09T04:00:13.398Z,19.50
2018-05-09T04:03:33.337Z,19.50
2018-05-09T04:06:53.945Z,19.40
2018-05-09T04:09:55.328Z,19.40
2018-05-09T04:12:57.328Z,19.40
2018-05-09T04:15:58.592Z,19.30
2018-05-09T04:18:59.905Z,19.40
2018-05-09T04:22:01.550Z,19.40
2018-05-09T04:25:02.952Z,19.50
2018-05-09T04:28:05.100Z,19.50
2018-05-09T04:31:06.302Z,19.50
2018-05-09T04:34:07.661Z,19.60
2018-05-09T04:37:09.152Z,19.60
2018-05-09T04:40:11.571Z,19.40
2018-05-09T04:43:12.842Z,19.40
2018-05-09T04:46:20.756Z,19.50
2018-05-09T04:49:22.041Z,19.50
2018-05-09T04:52:23.331Z,19.30
2018-05-09T04:55:24.591Z,19.40
2018-05-09T04:58:25.842Z,19.50
2018-05-09T05:01:27.088Z,19.50
2018-05-09T05:04:28.866Z,19.40
2018-05-09T05:07:30.142Z,19.50
2018-05-09T05:10:31.438Z,19.60
2018-05-09T05:13:33.472Z,19.60
2018-05-09T05:16:34.741Z,19.60
2018-05-09T05:19:36.755Z,19.80
2018-05-09T05:22:38.157Z,19.70
2018-05-09T05:25:39.414Z,19.80
2018-05-09T05:28:40.657Z,19.80
2018-05-09T05:31:42.653Z,19.80
2018-05-09T05:34:43.899Z,19.80
2018-05-09T05:37:45.197Z,19.80
2018-05-09T05:40:46.427Z,19.80
2018-05-09T05:43:49.293Z,19.80
2018-05-09T05:46:50.551Z,19.80
2018-05-09T05:49:51.798Z,19.90
2018-05-09T05:52:53.050Z,19.90
2018-05-09T05:55:54.286Z,20.00
2018-05-09T05:58:56.303Z,19.80
2018-05-09T06:01:57.613Z,19.80
2018-05-09T06:04:59.617Z,19.90
2018-05-09T06:08:01.628Z,19.80
2018-05-09T06:11:02.948Z,19.80
2018-05-09T06:14:05.085Z,20.00
2018-05-09T06:17:06.455Z,20.00
2018-05-09T06:20:07.649Z,20.10
2018-05-09T06:23:09.267Z,20.10
2018-05-09T06:26:10.530Z,20.20
2018-05-09T06:29:11.808Z,20.20
2018-05-09T06:32:13.047Z,20.30
2018-05-09T06:35:14.298Z,20.30
2018-05-09T06:38:16.278Z,20.40
2018-05-09T06:41:18.282Z,20.50
2018-05-09T06:44:19.550Z,20.50
2018-05-09T06:47:20.841Z,20.50
2018-05-09T06:50:22.107Z,20.50
2018-05-09T06:53:23.380Z,20.50
2018-05-09T06:56:24.757Z,20.50
2018-05-09T06:59:25.983Z,20.70
2018-05-09T07:02:27.239Z,20.80
2018-05-09T07:05:28.488Z,21.00
2018-05-09T07:08:29.740Z,21.10
2018-05-09T07:11:30.983Z,21.10
2018-05-09T07:14:32.984Z,21.30
2018-05-09T07:17:34.229Z,21.30
2018-05-09T07:20:36.228Z,21.50
2018-05-09T07:23:37.505Z,21.50
2018-05-09T07:26:38.731Z,21.60
2018-05-09T07:29:39.963Z,21.70
2018-05-09T07:32:41.214Z,21.80
2018-05-09T07:35:42.470Z,21.80
2018-05-09T07:38:43.741Z,22.00
2018-05-09T07:41:44.990Z,22.00
2018-05-09T07:44:46.208Z,22.10
2018-05-09T07:47:47.518Z,22.20
2018-05-09T07:50:49.496Z,22.20
2018-05-09T07:53:50.792Z,22.20
2018-05-09T07:56:52.037Z,22.30
2018-05-09T07:59:53.295Z,22.40
2018-05-09T08:02:54.583Z,22.40
2018-05-09T08:05:55.904Z,22.40
2018-05-09T08:08:57.080Z,22.50
2018-05-09T08:11:58.303Z,22.50
2018-05-09T08:15:00.300Z,22.70
2018-05-09T08:18:01.554Z,22.70
2018-05-09T08:21:03.580Z,22.70
2018-05-09T08:24:04.827Z,22.70
2018-05-09T08:27:06.058Z,22.70
2018-05-09T08:30:08.071Z,22.90
2018-05-09T08:33:09.319Z,22.90
2018-05-09T08:36:10.555Z,23.10
2018-05-09T08:39:12.602Z,23.30
2018-05-09T08:42:13.853Z,23.20
2018-05-09T08:45:15.104Z,23.30
2018-05-09T08:48:16.352Z,23.30
2018-05-09T08:51:17.633Z,23.40
2018-05-09T08:54:18.863Z,23.40
2018-05-09T08:57:20.841Z,23.50
2018-05-09T09:00:22.811Z,23.60
2018-05-09T09:03:24.066Z,23.50
2018-05-09T09:06:25.355Z,23.60
2018-05-09T09:09:27.354Z,23.60
2018-05-09T09:12:28.584Z,23.60
2018-05-09T09:15:30.592Z,23.80
2018-05-09T09:18:32.652Z,23.90
2018-05-09T09:21:33.843Z,23.90
2018-05-09T09:24:35.085Z,24.00
2018-05-09T09:27:37.573Z,24.10
2018-05-09T09:30:38.850Z,24.10
2018-05-09T09:33:40.102Z,24.20
2018-05-09T09:36:42.102Z,24.30
2018-05-09T09:39:43.373Z,24.30
2018-05-09T09:42:44.636Z,24.50
2018-05-09T09:45:45.873Z,24.60
2018-05-09T09:48:47.854Z,24.70
2018-05-09T09:51:49.869Z,24.80
2018-05-09T09:54:51.127Z,24.70
2018-05-09T09:57:52.450Z,24.80
2018-05-09T10:00:54.570Z,24.90
2018-05-09T10:03:56.149Z,24.90
2018-05-09T10:06:57.490Z,25.20
2018-05-09T10:09:58.770Z,25.10
2018-05-09T10:13:00.171Z,25.00
2018-05-09T10:16:01.496Z,25.10
2018-05-09T10:19:02.754Z,25.10
2018-05-09T10:22:04.660Z,25.20
2018-05-09T10:25:05.942Z,25.30
2018-05-09T10:28:07.227Z,25.30
2018-05-09T10:31:08.554Z,25.30
2018-05-09T10:34:09.816Z,25.30
2018-05-09T10:37:12.487Z,25.40
2018-05-09T10:40:13.806Z,25.40
2018-05-09T10:43:15.101Z,25.50
2018-05-09T10:46:16.438Z,25.60
2018-05-09T10:49:17.775Z,25.90
2018-05-09T10:52:19.034Z,26.00
2018-05-09T10:55:20.723Z,26.30
2018-05-09T10:58:22.024Z,26.70
2018-05-09T11:01:24.009Z,27.50
2018-05-09T11:04:26.744Z,28.20
2018-05-09T11:07:28.275Z,28.20
2018-05-09T11:10:30.870Z,27.90
2018-05-09T11:13:32.987Z,27.60
2018-05-09T11:16:34.276Z,27.60
2018-05-09T11:19:35.571Z,27.40
2018-05-09T11:22:37.595Z,27.00
2018-05-09T11:25:38.881Z,27.00
2018-05-09T11:28:40.121Z,26.90
2018-05-09T11:31:41.366Z,27.00
2018-05-09T11:34:42.638Z,26.90
2018-05-09T11:37:43.938Z,26.70
2018-05-09T11:40:45.198Z,26.30
2018-05-09T11:43:46.462Z,26.10
2018-05-09T11:46:47.695Z,25.90
2018-05-09T11:49:49.007Z,26.00
2018-05-09T11:52:50.404Z,25.90
2018-05-09T11:55:51.682Z,25.60
2018-05-09T11:58:53.163Z,25.30
2018-05-09T12:01:54.816Z,25.20
2018-05-09T12:04:56.219Z,25.20
2018-05-09T12:07:57.560Z,25.20
2018-05-09T12:10:58.886Z,25.10
2018-05-09T12:14:00.880Z,25.10
2018-05-09T12:17:02.994Z,25.10
2018-05-09T12:20:04.267Z,25.10
2018-05-09T12:23:05.513Z,25.10
2018-05-09T12:26:06.808Z,25.00
2018-05-09T12:29:08.062Z,25.00
2018-05-09T12:32:09.319Z,25.00
2018-05-09T12:35:10.546Z,25.00
2018-05-09T12:38:12.563Z,24.90
2018-05-09T12:41:13.822Z,24.90
2018-05-09T12:44:15.055Z,24.90
2018-05-09T12:47:16.320Z,25.00
2018-05-09T12:50:17.610Z,24.90
2018-05-09T12:53:18.893Z,24.90
2018-05-09T12:56:20.200Z,25.00
2018-05-09T12:59:22.262Z,25.80
2018-05-09T13:02:23.538Z,25.80
2018-05-09T13:05:25.549Z,26.70
2018-05-09T13:08:26.826Z,26.70
2018-05-09T13:11:28.073Z,27.10
2018-05-09T13:14:29.357Z,27.20
2018-05-09T13:17:30.641Z,27.40
2018-05-09T13:20:31.875Z,27.70
2018-05-09T13:23:33.130Z,27.80
2018-05-09T13:26:34.397Z,28.10
2018-05-09T13:29:35.623Z,28.10
2018-05-09T13:32:37.642Z,28.30
2018-05-09T13:35:38.891Z,28.30
2018-05-09T13:38:40.107Z,28.50
2018-05-09T13:41:41.361Z,27.80
2018-05-09T13:44:42.633Z,27.20
2018-05-09T13:47:43.921Z,26.80
2018-05-09T13:50:45.942Z,27.30
2018-05-09T13:53:47.272Z,27.20
2018-05-09T13:56:48.477Z,27.60
2018-05-09T13:59:49.714Z,28.00
2018-05-09T14:02:50.986Z,28.20
2018-05-09T14:05:52.230Z,27.80
2018-05-09T14:08:54.213Z,28.20
2018-05-09T14:11:55.480Z,28.20
2018-05-09T14:14:56.724Z,28.40
2018-05-09T14:17:58.736Z,28.30
2018-05-09T14:20:59.982Z,28.20
2018-05-09T14:24:01.990Z,28.70
2018-05-09T14:27:03.342Z,28.70
2018-05-09T14:30:04.571Z,28.40
2018-05-09T14:33:05.820Z,28.20
2018-05-09T14:36:07.066Z,27.80
2018-05-09T14:39:08.326Z,27.40
2018-05-09T14:42:10.291Z,28.10
2018-05-09T14:45:11.542Z,28.00
2018-05-09T14:48:12.826Z,28.40
2018-05-09T14:51:14.081Z,28.70
2018-05-09T14:54:15.337Z,28.80
2018-05-09T14:57:16.602Z,29.10
2018-05-09T15:00:17.936Z,29.00
2018-05-09T15:03:19.156Z,28.90
2018-05-09T15:06:20.383Z,28.60
2018-05-09T15:09:21.651Z,28.10
2018-05-09T15:12:22.899Z,28.30
2018-05-09T15:15:24.142Z,28.60
2018-05-09T15:18:26.116Z,29.10
2018-05-09T15:21:27.386Z,29.10
2018-05-09T15:24:29.368Z,29.30
2018-05-09T15:27:31.341Z,29.30
2018-05-09T15:30:33.325Z,29.40
2018-05-09T15:33:35.378Z,29.30
2018-05-09T15:36:36.626Z,29.30
2018-05-09T15:39:37.909Z,28.70
2018-05-09T15:42:39.150Z,28.40
2018-05-09T15:45:46.539Z,28.00
2018-05-09T15:48:48.100Z,27.60
2018-05-09T15:51:49.344Z,27.20
2018-05-09T15:54:51.347Z,27.10
2018-05-09T15:57:52.761Z,27.00
2018-05-09T16:00:54.054Z,27.10
2018-05-09T16:03:56.096Z,26.80
2018-05-09T16:06:57.631Z,26.80
2018-05-09T16:09:58.935Z,26.90
2018-05-09T16:13:00.166Z,26.60
2018-05-09T16:16:01.422Z,26.50
2018-05-09T16:19:02.690Z,26.40
2018-05-09T16:22:03.945Z,26.40
2018-05-09T16:25:05.232Z,26.30
2018-05-09T16:28:06.501Z,26.40
2018-05-09T16:31:07.787Z,26.30
2018-05-09T16:34:09.032Z,26.40
2018-05-09T16:37:10.319Z,26.50
2018-05-09T16:40:11.577Z,26.40
2018-05-09T16:43:12.849Z,26.30
2018-05-09T16:46:14.152Z,26.20
2018-05-09T16:49:15.409Z,26.10
2018-05-09T16:52:16.650Z,26.00
2018-05-09T16:55:18.714Z,26.00
2018-05-09T16:58:19.950Z,26.00
2018-05-09T17:01:21.247Z,26.10
2018-05-09T17:04:22.517Z,25.90
2018-05-09T17:07:23.771Z,25.70
2018-05-09T17:10:25.055Z,25.80
2018-05-09T17:13:27.031Z,25.90
2018-05-09T17:16:29.026Z,25.90
2018-05-09T17:19:30.289Z,25.80
2018-05-09T17:22:32.408Z,25.80
2018-05-09T17:25:33.659Z,25.80
2018-05-09T17:28:34.951Z,25.80
2018-05-09T17:31:36.217Z,25.70
2018-05-09T17:34:38.205Z,25.50
2018-05-09T17:37:39.446Z,25.50
2018-05-09T17:40:40.724Z,25.40
2018-05-09T17:43:42.092Z,25.20
2018-05-09T17:46:43.380Z,25.10
2018-05-09T17:49:45.401Z,25.00
2018-05-09T17:52:46.641Z,25.00
2018-05-09T17:55:47.932Z,24.90
2018-05-09T17:58:49.311Z,24.90
2018-05-09T18:01:50.514Z,24.80
2018-05-09T18:04:51.801Z,24.80
2018-05-09T18:07:53.062Z,24.70
2018-05-09T18:10:56.291Z,24.50
2018-05-09T18:13:57.596Z,24.50
2018-05-09T18:16:59.434Z,24.50
2018-05-09T18:20:00.799Z,24.50
2018-05-09T18:23:02.571Z,24.40
2018-05-09T18:26:03.900Z,24.20
2018-05-09T18:29:05.174Z,24.10
2018-05-09T18:32:07.368Z,24.20
2018-05-09T18:35:08.885Z,24.10
2018-05-09T18:38:10.144Z,24.00
2018-05-09T18:41:11.488Z,23.90
2018-05-09T18:44:12.957Z,23.60
2018-05-09T18:47:16.568Z,23.50
2018-05-09T18:50:17.868Z,23.50
2018-05-09T18:53:20.372Z,23.50
2018-05-09T18:56:21.836Z,23.50
2018-05-09T18:59:24.296Z,23.70
2018-05-09T19:02:26.909Z,23.70
2018-05-09T19:05:28.597Z,23.80
2018-05-09T19:08:29.928Z,23.50
2018-05-09T19:11:31.807Z,23.40
2018-05-09T19:14:42.003Z,23.60
2018-05-09T19:17:43.585Z,23.70
2018-05-09T19:20:45.219Z,23.60
2018-05-09T19:23:46.756Z,23.60
2018-05-09T19:26:48.768Z,23.60
2018-05-09T19:29:50.380Z,23.60
2018-05-09T19:32:52.155Z,23.50
2018-05-09T19:35:54.193Z,23.00
2018-05-09T19:38:55.507Z,23.00
2018-05-09T19:41:56.865Z,22.90
2018-05-09T19:44:58.249Z,23.10
2018-05-09T19:47:59.674Z,23.30
2018-05-09T19:51:01.570Z,23.30
2018-05-09T19:54:03.275Z,23.30
2018-05-09T19:57:05.226Z,23.40
2018-05-09T20:00:06.963Z,23.30
2018-05-09T20:03:08.302Z,23.30
2018-05-09T20:06:10.544Z,23.30
2018-05-09T20:09:14.790Z,23.30
2018-05-09T20:12:16.510Z,23.30
2018-05-09T20:15:17.773Z,23.20
2018-05-09T20:18:19.411Z,23.20
2018-05-09T20:21:20.742Z,23.20
2018-05-09T20:24:22.011Z,23.10
2018-05-09T20:27:23.680Z,23.10
2018-05-09T20:30:31.075Z,23.00
2018-05-09T20:33:32.390Z,23.10
2018-05-09T20:36:34.894Z,22.90
2018-05-09T20:39:36.211Z,22.80
2018-05-09T20:42:37.658Z,22.60
2018-05-09T20:45:38.930Z,22.70
2018-05-09T20:48:40.201Z,22.70
2018-05-09T20:51:50.530Z,22.80
2018-05-09T20:54:52.672Z,22.60
2018-05-09T20:57:54.869Z,22.60
2018-05-09T21:00:56.243Z,22.40
2018-05-09T21:03:57.625Z,22.40
2018-05-09T21:06:59.740Z,22.80
2018-05-09T21:10:01.094Z,22.80
2018-05-09T21:13:02.454Z,22.80
2018-05-09T21:16:03.732Z,22.80
2018-05-09T21:19:05.014Z,22.80
2018-05-09T21:22:06.337Z,22.60
2018-05-09T21:25:08.341Z,22.40
2018-05-09T21:28:09.620Z,22.40
2018-05-09T21:31:10.889Z,22.20
2018-05-09T21:34:12.141Z,21.90
2018-05-09T21:37:13.433Z,21.70
2018-05-09T21:40:14.702Z,21.70
2018-05-09T21:43:15.961Z,21.70
2018-05-09T21:46:17.229Z,21.90
2018-05-09T21:49:19.083Z,22.10
2018-05-09T21:52:20.712Z,22.10
2018-05-09T21:55:21.973Z,22.00
2018-05-09T21:58:24.032Z,22.20
2018-05-09T22:01:25.293Z,22.10
2018-05-09T22:04:26.657Z,22.20
2018-05-09T22:07:27.886Z,22.30
2018-05-09T22:10:29.177Z,22.30
2018-05-09T22:13:30.455Z,22.40
2018-05-09T22:16:31.706Z,22.40
2018-05-09T22:19:32.968Z,22.40
2018-05-09T22:22:34.226Z,22.30
2018-05-09T22:25:35.446Z,22.40
2018-05-09T22:28:36.679Z,22.50
2018-05-09T22:31:38.671Z,22.50
2018-05-09T22:34:40.652Z,22.40
2018-05-09T22:37:41.890Z,22.40
2018-05-09T22:40:43.180Z,22.40
2018-05-09T22:43:44.427Z,22.40
2018-05-09T22:46:46.418Z,22.40
2018-05-09T22:49:48.395Z,22.40
2018-05-09T22:52:49.710Z,22.30
2018-05-09T22:55:51.110Z,22.30
2018-05-09T22:58:52.340Z,22.30
2018-05-09T23:01:53.590Z,22.10
2018-05-09T23:04:54.806Z,22.10
2018-05-09T23:07:56.781Z,22.20
2018-05-09T23:10:58.050Z,22.20
2018-05-09T23:14:00.065Z,22.10
2018-05-09T23:17:01.325Z,22.10
2018-05-09T23:20:02.611Z,22.10
2018-05-09T23:23:03.900Z,21.90
2018-05-09T23:26:05.162Z,22.00
2018-05-09T23:29:06.414Z,22.00
2018-05-09T23:32:07.678Z,21.60
2018-05-09T23:35:08.930Z,21.70
2018-05-09T23:38:10.956Z,21.80
2018-05-09T23:41:12.968Z,21.70
2018-05-09T23:44:14.232Z,21.70
2018-05-09T23:47:15.485Z,21.60
2018-05-09T23:50:16.808Z,21.50
2018-05-09T23:53:18.153Z,21.50
2018-05-09T23:56:19.386Z,21.60
2018-05-09T23:59:20.678Z,21.60
